createdAt,value
2019-01-11T00:01:11.445Z,31.97
2019-01-11T00:03:43.094Z,32.97
2019-01-11T00:06:13.427Z,29.97
2019-01-11T00:08:43.824Z,30.40
2019-01-11T00:11:14.151Z,29.87
2019-01-11T00:13:44.547Z,26.23
2019-01-11T00:16:14.868Z,28.20
2019-01-11T00:18:45.255Z,27.70
2019-01-11T00:21:15.603Z,28.23
2019-01-11T00:23:45.979Z,24.37
2019-01-11T00:26:16.302Z,26.07
2019-01-11T00:28:46.724Z,23.47
2019-01-11T00:31:17.143Z,24.23
2019-01-11T00:33:47.487Z,23.20
2019-01-11T00:36:17.822Z,23.63
2019-01-11T00:38:48.175Z,25.80
2019-01-11T00:41:18.490Z,21.87
2019-01-11T00:43:48.852Z,23.93
2019-01-11T00:46:19.166Z,25.07
2019-01-11T00:49:01.209Z,24.77
2019-01-11T00:51:31.523Z,26.50
2019-01-11T00:54:01.895Z,26.77
2019-01-11T00:56:32.247Z,28.10
2019-01-11T00:59:02.602Z,26.40
2019-01-11T01:01:32.927Z,28.87
2019-01-11T01:04:03.386Z,25.40
2019-01-11T01:06:34.888Z,28.50
2019-01-11T01:09:08.735Z,28.20
2019-01-11T01:11:39.106Z,27.80
2019-01-11T01:14:09.473Z,28.90
2019-01-11T01:16:40.007Z,30.67
2019-01-11T01:19:10.400Z,32.20
2019-01-11T01:21:40.742Z,30.10
2019-01-11T01:24:11.120Z,26.00
2019-01-11T01:26:41.494Z,28.20
2019-01-11T01:29:11.842Z,25.13
2019-01-11T01:31:42.755Z,27.93
2019-01-11T01:34:13.124Z,28.50
2019-01-11T01:36:43.449Z,25.07
2019-01-11T01:39:13.805Z,24.60
2019-01-11T01:41:44.210Z,27.23
2019-01-11T01:44:15.622Z,25.80
2019-01-11T01:46:45.937Z,29.07
2019-01-11T01:49:16.309Z,26.00
2019-01-11T01:51:46.679Z,28.33
2019-01-11T01:54:17.394Z,27.10
2019-01-11T01:56:47.732Z,31.57
2019-01-11T01:59:18.094Z,38.57
2019-01-11T02:01:48.545Z,32.17
2019-01-11T02:04:18.919Z,31.20
2019-01-11T02:06:49.554Z,29.90
2019-01-11T02:09:20.080Z,30.60
2019-01-11T02:11:50.695Z,28.47
2019-01-11T02:14:21.049Z,34.40
2019-01-11T02:16:51.394Z,36.30
2019-01-11T02:19:21.983Z,36.67
2019-01-11T02:21:52.321Z,35.07
2019-01-11T02:24:22.972Z,32.90
2019-01-11T02:26:53.717Z,34.50
2019-01-11T02:29:24.412Z,31.43
2019-01-11T02:31:54.920Z,34.23
2019-01-11T02:34:29.010Z,34.93
2019-01-11T02:36:59.363Z,30.80
2019-01-11T02:39:29.727Z,32.17
2019-01-11T02:42:00.175Z,30.50
2019-01-11T02:44:30.594Z,32.03
2019-01-11T02:47:01.133Z,31.40
2019-01-11T02:49:31.620Z,32.40
2019-01-11T02:52:02.249Z,30.23
2019-01-11T02:54:32.768Z,31.45
2019-01-11T02:57:03.079Z,33.03
2019-01-11T02:59:33.459Z,32.23
2019-01-11T03:02:03.803Z,30.53
2019-01-11T03:04:34.260Z,32.63
2019-01-11T03:07:04.728Z,31.63
2019-01-11T03:09:35.112Z,32.57
2019-01-11T03:12:05.798Z,33.70
2019-01-11T03:14:36.227Z,30.37
2019-01-11T03:17:06.578Z,33.23
2019-01-11T03:19:37.019Z,33.93
2019-01-11T03:22:07.358Z,34.60
2019-01-11T03:24:37.720Z,31.00
2019-01-11T03:27:08.049Z,32.73
2019-01-11T03:29:38.413Z,31.93
2019-01-11T03:32:08.754Z,32.77
2019-01-11T03:34:52.383Z,29.73
2019-01-11T03:37:22.739Z,31.67
2019-01-11T03:39:53.408Z,32.50
2019-01-11T03:42:23.764Z,32.03
2019-01-11T03:44:54.122Z,29.70
2019-01-11T03:47:24.469Z,30.90
2019-01-11T03:49:55.180Z,30.13
2019-01-11T03:52:25.662Z,33.20
2019-01-11T03:54:56.100Z,32.13
2019-01-11T03:57:26.496Z,31.93
2019-01-11T03:59:56.877Z,31.63
2019-01-11T04:02:27.202Z,31.37
2019-01-11T04:04:57.575Z,31.00
2019-01-11T04:07:28.023Z,30.80
2019-01-11T04:09:58.414Z,30.00
2019-01-11T04:12:28.773Z,30.30
2019-01-11T04:14:59.145Z,32.10
2019-01-11T04:17:29.501Z,32.13
2019-01-11T04:20:02.261Z,28.70
2019-01-11T04:22:33.451Z,30.83
2019-01-11T04:25:05.349Z,28.77
2019-01-11T04:27:36.674Z,30.33
2019-01-11T04:30:12.104Z,30.33
2019-01-11T04:32:42.438Z,28.77
2019-01-11T04:35:12.915Z,30.17
2019-01-11T04:37:43.713Z,31.60
2019-01-11T04:40:16.071Z,30.50
2019-01-11T04:42:46.406Z,29.60
2019-01-11T04:45:16.773Z,33.10
2019-01-11T04:47:47.115Z,30.47
2019-01-11T04:50:19.047Z,35.67
2019-01-11T04:52:49.713Z,33.53
2019-01-11T04:55:20.098Z,37.13
2019-01-11T04:57:50.638Z,35.63
2019-01-11T05:00:22.472Z,35.30
2019-01-11T05:02:52.966Z,35.33
2019-01-11T05:05:23.391Z,35.13
2019-01-11T05:07:53.849Z,35.37
2019-01-11T05:10:24.422Z,37.13
2019-01-11T05:12:54.743Z,38.47
2019-01-11T05:15:25.188Z,37.63
2019-01-11T05:17:55.894Z,37.10
2019-01-11T05:20:26.526Z,37.83
2019-01-11T05:22:57.102Z,36.93
2019-01-11T05:25:28.590Z,36.20
2019-01-11T05:27:59.098Z,34.73
2019-01-11T05:30:29.410Z,38.50
2019-01-11T05:33:00.081Z,36.03
2019-01-11T05:35:30.466Z,36.53
2019-01-11T05:38:00.810Z,34.93
2019-01-11T05:40:31.186Z,35.37
2019-01-11T05:43:01.610Z,32.73
2019-01-11T05:45:35.552Z,36.67
2019-01-11T05:48:06.969Z,33.10
2019-01-11T05:50:37.348Z,31.37
2019-01-11T05:53:07.672Z,34.20
2019-01-11T05:55:51.916Z,30.83
2019-01-11T05:58:39.162Z,33.63
2019-01-11T06:01:09.578Z,32.40
2019-01-11T06:03:39.919Z,32.77
2019-01-11T06:06:13.386Z,34.23
2019-01-11T06:08:43.813Z,30.77
2019-01-11T06:11:14.148Z,34.90
2019-01-11T06:13:44.466Z,30.67
2019-01-11T06:16:15.013Z,31.40
2019-01-11T06:18:45.355Z,33.50
2019-01-11T06:21:15.718Z,31.97
2019-01-11T06:23:46.051Z,30.90
2019-01-11T06:26:16.406Z,32.33
2019-01-11T06:28:46.763Z,32.80
2019-01-11T06:31:17.187Z,35.17
2019-01-11T06:33:47.966Z,30.53
2019-01-11T06:36:19.401Z,33.17
2019-01-11T06:38:49.810Z,32.73
2019-01-11T06:41:20.364Z,31.43
2019-01-11T06:43:51.390Z,32.00
2019-01-11T06:46:23.462Z,31.33
2019-01-11T06:48:53.780Z,30.93
2019-01-11T06:51:24.152Z,31.60
2019-01-11T06:53:54.476Z,39.13
2019-01-11T06:56:24.840Z,33.80
2019-01-11T06:58:55.173Z,36.53
2019-01-11T07:01:25.535Z,32.43
2019-01-11T07:03:55.902Z,31.37
2019-01-11T07:06:26.255Z,31.37
2019-01-11T07:08:56.686Z,34.13
2019-01-11T07:11:28.107Z,31.47
2019-01-11T07:13:58.456Z,30.10
2019-01-11T07:16:28.809Z,30.43
2019-01-11T07:18:59.143Z,30.37
2019-01-11T07:21:29.484Z,29.53
2019-01-11T07:23:59.880Z,31.53
2019-01-11T07:26:30.270Z,27.53
2019-01-11T07:29:00.588Z,28.43
2019-01-11T07:31:33.349Z,25.90
2019-01-11T07:34:03.675Z,27.57
2019-01-11T07:36:36.082Z,26.70
2019-01-11T07:39:30.387Z,24.10
2019-01-11T07:42:00.951Z,26.60
2019-01-11T07:44:31.321Z,23.50
2019-01-11T07:47:03.971Z,21.87
2019-01-11T07:49:34.440Z,22.43
2019-01-11T07:52:04.906Z,23.43
2019-01-11T07:54:36.331Z,23.40
2019-01-11T07:57:06.757Z,25.47
2019-01-11T07:59:37.143Z,25.80
2019-01-11T08:02:07.471Z,26.63
2019-01-11T08:04:37.850Z,27.93
2019-01-11T08:07:08.272Z,31.30
2019-01-11T08:09:38.670Z,30.37
2019-01-11T08:12:09.019Z,29.97
2019-01-11T08:14:39.349Z,26.27
2019-01-11T08:17:09.704Z,26.43
2019-01-11T08:19:41.118Z,28.77
2019-01-11T08:22:20.982Z,27.57
2019-01-11T08:25:01.181Z,28.90
2019-01-11T08:27:31.601Z,30.20
2019-01-11T08:30:01.983Z,26.60
2019-01-11T08:32:32.623Z,31.02
2019-01-11T08:35:04.168Z,28.00
2019-01-11T08:37:35.074Z,29.30
2019-01-11T08:40:06.417Z,29.10
2019-01-11T08:42:36.774Z,33.07
2019-01-11T08:45:08.532Z,32.87
2019-01-11T08:47:39.082Z,27.10
2019-01-11T08:50:14.517Z,29.53
2019-01-11T08:52:47.014Z,33.67
2019-01-11T08:55:17.695Z,31.52
2019-01-11T08:57:48.662Z,33.97
2019-01-11T09:00:19.320Z,32.67
2019-01-11T09:02:49.715Z,31.10
2019-01-11T09:05:20.083Z,30.63
2019-01-11T09:07:50.486Z,27.97
2019-01-11T09:10:23.333Z,32.93
2019-01-11T09:12:52.815Z,28.73
2019-01-11T09:15:23.133Z,29.43
2019-01-11T09:18:02.713Z,27.97
2019-01-11T09:20:33.156Z,30.97
2019-01-11T09:23:03.526Z,28.83
2019-01-11T09:25:33.851Z,31.90
2019-01-11T09:28:04.280Z,31.63
2019-01-11T09:30:34.619Z,28.20
2019-01-11T09:33:05.691Z,29.97
2019-01-11T09:35:36.012Z,30.57
2019-01-11T09:38:06.376Z,30.60
2019-01-11T09:40:36.726Z,31.27
2019-01-11T09:43:07.086Z,29.23
2019-01-11T09:45:37.452Z,28.03
2019-01-11T09:48:07.783Z,29.63
2019-01-11T09:50:38.210Z,30.90
2019-01-11T09:53:08.531Z,35.27
2019-01-11T09:55:38.883Z,34.17
2019-01-11T09:58:09.199Z,31.67
2019-01-11T10:00:39.554Z,33.53
2019-01-11T10:03:11.626Z,28.40
2019-01-11T10:05:42.881Z,30.60
2019-01-11T10:08:13.301Z,29.67
2019-01-11T10:10:43.629Z,33.10
2019-01-11T10:13:13.988Z,31.83
2019-01-11T10:15:44.324Z,28.37
2019-01-11T10:18:14.676Z,30.43
2019-01-11T10:20:45.006Z,31.80
2019-01-11T10:23:15.521Z,32.73
2019-01-11T10:25:45.850Z,36.10
2019-01-11T10:28:28.173Z,30.00
2019-01-11T10:31:00.767Z,26.73
2019-01-11T10:33:35.942Z,28.80
2019-01-11T10:36:02.498Z,29.83
2019-01-11T10:38:33.306Z,29.40
2019-01-11T10:41:03.815Z,27.90
2019-01-11T10:43:34.675Z,33.87
2019-01-11T10:46:19.499Z,35.93
2019-01-11T10:48:49.844Z,35.50
2019-01-11T10:51:20.210Z,35.20
2019-01-11T10:53:50.541Z,34.70
2019-01-11T10:56:20.916Z,35.63
2019-01-11T10:58:51.320Z,35.90
2019-01-11T11:01:21.608Z,34.43
2019-01-11T11:03:52.443Z,34.57
2019-01-11T11:06:22.860Z,33.87
2019-01-11T11:08:53.348Z,39.03
2019-01-11T11:11:24.887Z,32.00
2019-01-11T11:13:55.260Z,32.53
2019-01-11T11:16:26.548Z,32.37
2019-01-11T11:18:56.893Z,30.17
2019-01-11T11:21:27.273Z,26.43
2019-01-11T11:23:57.629Z,29.07
2019-01-11T11:26:28.078Z,26.63
2019-01-11T11:28:58.506Z,27.90
2019-01-11T11:31:28.858Z,32.43
2019-01-11T11:33:59.204Z,32.13
2019-01-11T11:36:29.702Z,28.93
2019-01-11T11:39:00.310Z,29.73
2019-01-11T11:41:31.346Z,28.12
2019-01-11T11:44:01.666Z,32.10
2019-01-11T11:46:32.169Z,30.33
2019-01-11T11:49:02.502Z,29.17
2019-01-11T11:51:32.873Z,27.25
2019-01-11T11:54:03.214Z,28.47
2019-01-11T11:56:33.573Z,25.30
2019-01-11T11:59:03.902Z,24.87
2019-01-11T12:01:35.393Z,25.17
2019-01-11T12:04:05.711Z,26.30
2019-01-11T12:06:37.230Z,24.50
2019-01-11T12:09:10.167Z,23.33
2019-01-11T12:11:40.537Z,22.13
2019-01-11T12:14:10.880Z,25.27
2019-01-11T12:16:41.239Z,24.70
2019-01-11T12:19:11.600Z,21.13
2019-01-11T12:21:47.477Z,25.33
2019-01-11T12:24:13.933Z,25.60
2019-01-11T12:26:44.319Z,28.63
2019-01-11T12:29:14.923Z,26.57
2019-01-11T12:31:45.301Z,27.07
2019-01-11T12:34:15.703Z,26.20
2019-01-11T12:36:46.086Z,26.07
2019-01-11T12:39:16.415Z,22.37
2019-01-11T12:41:46.774Z,24.97
2019-01-11T12:44:17.092Z,26.03
2019-01-11T12:46:47.458Z,22.90
2019-01-11T12:49:17.807Z,24.17
2019-01-11T12:51:53.989Z,27.50
2019-01-11T12:54:22.069Z,25.50
2019-01-11T12:56:52.531Z,27.63
2019-01-11T12:59:22.881Z,24.98
2019-01-11T13:01:53.255Z,24.03
2019-01-11T13:04:23.577Z,23.87
2019-01-11T13:06:53.959Z,23.33
2019-01-11T13:09:24.288Z,23.73
2019-01-11T13:11:54.670Z,24.30
2019-01-11T13:14:25.010Z,27.93
2019-01-11T13:16:55.378Z,22.83
2019-01-11T13:19:25.720Z,23.47
2019-01-11T13:22:00.509Z,27.40
2019-01-11T13:24:28.133Z,25.00
2019-01-11T13:26:58.534Z,27.97
2019-01-11T13:29:28.853Z,23.60
2019-01-11T13:31:59.249Z,27.00
2019-01-11T13:34:29.713Z,30.03
2019-01-11T13:37:00.095Z,26.27
2019-01-11T13:39:30.442Z,26.50
2019-01-11T13:42:00.794Z,27.20
2019-01-11T13:44:32.224Z,30.93
2019-01-11T13:47:02.789Z,31.03
2019-01-11T13:49:33.138Z,26.13
2019-01-11T13:52:07.144Z,26.60
2019-01-11T13:54:35.567Z,30.27
2019-01-11T13:57:05.985Z,27.03
2019-01-11T13:59:41.516Z,33.10
2019-01-11T14:02:08.416Z,32.17
2019-01-11T14:04:38.843Z,33.13
2019-01-11T14:07:09.306Z,38.60
2019-01-11T14:09:39.753Z,45.20
2019-01-11T14:12:10.266Z,38.50
2019-01-11T14:14:40.672Z,45.20
2019-01-11T14:17:11.074Z,41.93
2019-01-11T14:19:41.579Z,42.30
2019-01-11T14:22:13.821Z,45.63
2019-01-11T14:24:44.571Z,38.25
2019-01-11T14:27:15.073Z,42.73
2019-01-11T14:29:45.575Z,45.75
2019-01-11T14:32:16.334Z,51.53
2019-01-11T14:34:46.910Z,47.47
2019-01-11T14:37:17.266Z,46.73
2019-01-11T14:39:47.977Z,51.90
2019-01-11T14:42:18.666Z,53.07
2019-01-11T14:44:49.344Z,45.63
2019-01-11T14:47:19.987Z,51.57
2019-01-11T14:50:11.027Z,44.27
2019-01-11T14:52:42.774Z,47.23
2019-01-11T14:55:13.655Z,48.47
2019-01-11T14:57:45.692Z,51.23
2019-01-11T15:00:21.025Z,47.80
2019-01-11T15:02:51.721Z,44.50
2019-01-11T15:05:22.415Z,43.37
2019-01-11T15:07:52.841Z,45.10
2019-01-11T15:10:23.240Z,46.57
2019-01-11T15:12:53.684Z,52.77
2019-01-11T15:15:25.121Z,41.97
2019-01-11T15:17:55.569Z,48.30
2019-01-11T15:20:25.920Z,43.10
2019-01-11T15:22:56.314Z,41.27
2019-01-11T15:25:26.638Z,43.43
2019-01-11T15:27:57.274Z,35.30
2019-01-11T15:30:27.624Z,34.50
2019-01-11T15:32:58.030Z,37.37
2019-01-11T15:35:28.414Z,25.20
2019-01-11T15:37:58.815Z,31.27
2019-01-11T15:40:36.278Z,27.10
2019-01-11T15:43:02.444Z,27.37
2019-01-11T15:45:32.814Z,30.63
2019-01-11T15:48:03.654Z,28.70
2019-01-11T15:50:59.268Z,27.00
2019-01-11T15:53:37.419Z,33.00
2019-01-11T15:56:10.019Z,31.10
2019-01-11T15:58:40.458Z,24.97
2019-01-11T16:01:10.809Z,32.63
2019-01-11T16:03:41.639Z,38.60
2019-01-11T16:06:31.905Z,36.30
2019-01-11T16:09:56.903Z,39.77
2019-01-11T16:12:36.066Z,41.67
2019-01-11T16:15:59.142Z,44.37
2019-01-11T16:18:31.374Z,47.63
2019-01-11T16:21:01.944Z,50.63
2019-01-11T16:23:32.341Z,52.57
2019-01-11T16:26:02.695Z,57.20
2019-01-11T16:28:33.094Z,47.90
2019-01-11T16:31:03.462Z,54.37
2019-01-11T16:33:33.900Z,61.93
2019-01-11T16:36:04.416Z,64.80
2019-01-11T16:38:34.834Z,59.13
2019-01-11T16:41:05.613Z,61.20
2019-01-11T16:43:36.021Z,66.70
2019-01-11T16:46:06.405Z,71.43
2019-01-11T16:48:36.843Z,64.73
2019-01-11T16:51:07.203Z,70.63
2019-01-11T16:53:37.621Z,67.30
2019-01-11T16:56:07.954Z,73.90
2019-01-11T16:58:38.394Z,71.57
2019-01-11T17:01:10.469Z,68.47
2019-01-11T17:03:41.038Z,68.47
2019-01-11T17:06:11.499Z,56.17
2019-01-11T17:08:43.011Z,69.80
2019-01-11T17:11:13.492Z,67.73
2019-01-11T17:13:43.939Z,57.77
2019-01-11T17:16:14.652Z,49.10
2019-01-11T17:18:45.030Z,54.93
2019-01-11T17:21:15.586Z,55.33
2019-01-11T17:23:45.922Z,57.27
2019-01-11T17:26:16.389Z,59.23
2019-01-11T17:28:46.828Z,64.37
2019-01-11T17:31:17.605Z,63.98
2019-01-11T17:33:49.728Z,66.07
2019-01-11T17:36:20.869Z,75.28
2019-01-11T17:38:51.821Z,64.60
2019-01-11T17:41:22.570Z,65.47
2019-01-11T17:43:53.567Z,66.17
2019-01-11T17:46:24.034Z,61.20
2019-01-11T17:48:55.116Z,51.43
2019-01-11T17:51:25.555Z,47.80
2019-01-11T17:53:56.111Z,53.47
2019-01-11T17:56:26.512Z,64.63
2019-01-11T17:58:57.155Z,53.07
2019-01-11T18:01:27.574Z,52.77
2019-01-11T18:03:58.902Z,42.27
2019-01-11T18:06:29.274Z,47.90
2019-01-11T18:08:59.843Z,50.97
2019-01-11T18:11:31.142Z,43.00
2019-01-11T18:14:01.546Z,43.17
2019-01-11T18:16:31.918Z,43.80
2019-01-11T18:19:02.348Z,38.70
2019-01-11T18:21:32.705Z,39.20
2019-01-11T18:24:03.111Z,39.07
2019-01-11T18:26:33.482Z,40.40
2019-01-11T18:29:04.186Z,38.80
2019-01-11T18:31:34.533Z,38.17
2019-01-11T18:34:05.343Z,36.13
2019-01-11T18:36:35.666Z,32.93
2019-01-11T18:39:09.220Z,34.67
2019-01-11T18:41:39.683Z,35.07
2019-01-11T18:44:10.079Z,40.60
2019-01-11T18:46:40.518Z,38.10
2019-01-11T18:49:12.052Z,32.97
2019-01-11T18:51:42.503Z,38.80
2019-01-11T18:54:12.932Z,34.03
2019-01-11T18:56:43.298Z,30.80
2019-01-11T18:59:13.708Z,35.93
2019-01-11T19:01:44.120Z,31.97
2019-01-11T19:04:16.385Z,32.47
2019-01-11T19:06:46.870Z,32.80
2019-01-11T19:09:17.327Z,31.67
2019-01-11T19:11:47.828Z,31.90
2019-01-11T19:14:18.184Z,32.63
2019-01-11T19:16:48.607Z,31.10
2019-01-11T19:19:18.950Z,33.97
2019-01-11T19:21:49.353Z,32.93
2019-01-11T19:24:19.716Z,35.50
2019-01-11T19:26:50.134Z,38.30
2019-01-11T19:29:20.731Z,33.40
2019-01-11T19:31:51.114Z,33.37
2019-01-11T19:34:21.476Z,39.90
2019-01-11T19:36:52.213Z,36.40
2019-01-11T19:39:22.769Z,37.33
2019-01-11T19:41:53.253Z,33.33
2019-01-11T19:44:23.608Z,38.10
2019-01-11T19:46:54.044Z,35.90
2019-01-11T19:49:24.773Z,37.23
2019-01-11T19:51:55.181Z,37.70
2019-01-11T19:54:25.533Z,35.17
2019-01-11T19:56:56.006Z,37.00
2019-01-11T19:59:26.353Z,33.73
2019-01-11T20:01:56.868Z,33.77
2019-01-11T20:04:27.253Z,34.97
2019-01-11T20:06:57.825Z,35.00
2019-01-11T20:09:28.240Z,32.07
2019-01-11T20:11:58.695Z,35.53
2019-01-11T20:14:29.432Z,34.17
2019-01-11T20:16:59.960Z,31.97
2019-01-11T20:19:30.960Z,34.48
2019-01-11T20:22:01.378Z,34.37
2019-01-11T20:24:32.438Z,37.43
2019-01-11T20:27:02.834Z,35.83
2019-01-11T20:29:33.251Z,38.40
2019-01-11T20:32:03.875Z,32.30
2019-01-11T20:34:34.255Z,42.07
2019-01-11T20:37:16.482Z,43.87
2019-01-11T20:39:47.001Z,45.40
2019-01-11T20:42:17.950Z,35.57
2019-01-11T20:44:48.871Z,46.50
2019-01-11T20:47:19.791Z,38.70
2019-01-11T20:49:50.770Z,37.47
2019-01-11T20:52:21.684Z,35.80
2019-01-11T20:54:52.640Z,38.95
2019-01-11T20:57:23.130Z,40.50
2019-01-11T20:59:53.910Z,36.80
2019-01-11T21:02:24.307Z,37.03
2019-01-11T21:04:55.112Z,39.83
2019-01-11T21:07:25.507Z,36.93
2019-01-11T21:09:56.117Z,37.27
2019-01-11T21:12:27.119Z,34.97
2019-01-11T21:14:57.608Z,31.83
2019-01-11T21:17:29.110Z,35.40
2019-01-11T21:19:59.612Z,36.13
2019-01-11T21:22:30.245Z,34.30
2019-01-11T21:25:01.309Z,32.30
2019-01-11T21:27:31.725Z,32.03
2019-01-11T21:30:02.092Z,32.53
2019-01-11T21:32:33.666Z,34.60
2019-01-11T21:35:05.207Z,36.47
2019-01-11T21:37:35.638Z,37.50
2019-01-11T21:40:07.579Z,38.67
2019-01-11T21:42:38.249Z,38.13
2019-01-11T21:45:09.140Z,38.47
2019-01-11T21:47:39.506Z,35.77
2019-01-11T21:50:15.369Z,33.33
2019-01-11T21:52:45.775Z,35.43
2019-01-11T21:55:16.138Z,33.27
2019-01-11T21:57:46.686Z,34.67
2019-01-11T22:00:22.629Z,34.53
2019-01-11T22:02:53.103Z,35.83
2019-01-11T22:05:23.460Z,39.53
2019-01-11T22:07:53.842Z,42.77
2019-01-11T22:10:24.207Z,40.53
2019-01-11T22:12:55.865Z,39.93
2019-01-11T22:15:26.194Z,35.73
2019-01-11T22:17:56.594Z,38.37
2019-01-11T22:20:27.107Z,41.93
2019-01-11T22:22:57.516Z,40.33
2019-01-11T22:25:28.406Z,41.37
2019-01-11T22:27:59.786Z,37.03
2019-01-11T22:30:31.609Z,40.20
2019-01-11T22:33:03.257Z,41.93
2019-01-11T22:35:34.154Z,36.93
2019-01-11T22:38:04.814Z,36.57
2019-01-11T22:40:36.227Z,37.33
2019-01-11T22:43:07.050Z,41.33
2019-01-11T22:45:38.074Z,35.10
2019-01-11T22:48:08.475Z,37.57
2019-01-11T22:50:38.837Z,44.43
2019-01-11T22:53:09.190Z,44.00
2019-01-11T22:55:39.495Z,40.80
2019-01-11T22:58:10.362Z,43.50
2019-01-11T23:01:07.894Z,42.53
2019-01-11T23:03:50.668Z,43.43
2019-01-11T23:07:06.614Z,44.10
2019-01-11T23:09:51.242Z,45.17
2019-01-11T23:12:41.655Z,39.37
2019-01-11T23:15:17.918Z,41.13
2019-01-11T23:18:14.365Z,41.83
2019-01-11T23:20:45.331Z,34.95
2019-01-11T23:23:16.067Z,48.83
2019-01-11T23:25:46.365Z,46.55
2019-01-11T23:28:16.858Z,45.57
2019-01-11T23:30:47.219Z,45.93
2019-01-11T23:33:17.844Z,43.50
2019-01-11T23:35:48.311Z,51.00
2019-01-11T23:38:18.775Z,47.50
2019-01-11T23:40:50.748Z,49.67
2019-01-11T23:43:21.091Z,48.07
2019-01-11T23:45:51.913Z,47.17
2019-01-11T23:48:22.486Z,46.00
2019-01-11T23:50:53.023Z,42.03
2019-01-11T23:53:23.514Z,45.07
2019-01-11T23:55:53.942Z,50.20
2019-01-11T23:58:26.853Z,48.43
